Time;durP1;ratioP1;P1;durP2;ratioP2;P2;SDS_P1;SDS_P2;PMS_P1;PMS_P2;Temp;Humidity;BMP_temperature;BMP_pressure;BME280_temperature;BME280_humidity;BME280_pressure;Samples;Min_cycle;Max_cycle;Signal;HPM_P1;HPM_P2
2021/08/19 00:01:23;;;;;;;2.65;1.77;;;;;;;;;;5052844;28;20029;-75
2021/08/19 00:03:48;;;;;;;3.88;1.70;;;;;;;;;;5054408;28;20017;-75
2021/08/19 00:06:14;;;;;;;3.80;1.60;;;;;;;;;;5056971;28;20461;-75
2021/08/19 00:08:40;;;;;;;3.03;1.70;;;;;;;;;;5057272;28;20029;-76
2021/08/19 00:11:05;;;;;;;2.95;1.42;;;;;;;;;;5056978;28;20021;-74
2021/08/19 00:13:31;;;;;;;2.92;1.40;;;;;;;;;;5057127;28;20040;-74
2021/08/19 00:15:56;;;;;;;4.78;1.70;;;;;;;;;;5057183;28;20075;-74
2021/08/19 00:18:22;;;;;;;4.97;1.67;;;;;;;;;;5056818;28;20017;-74
2021/08/19 00:20:48;;;;;;;3.17;1.80;;;;;;;;;;5057011;28;20054;-75
2021/08/19 00:23:14;;;;;;;3.63;2.00;;;;;;;;;;5057022;28;20033;-75
2021/08/19 00:25:39;;;;;;;3.05;1.85;;;;;;;;;;5056966;28;20496;-74
2021/08/19 00:28:04;;;;;;;2.35;1.38;;;;;;;;;;5056878;28;20033;-75
2021/08/19 00:30:30;;;;;;;3.55;1.77;;;;;;;;;;5056777;28;20491;-75
2021/08/19 00:32:55;;;;;;;3.17;1.85;;;;;;;;;;5056718;28;20025;-74
2021/08/19 00:35:20;;;;;;;5.18;1.65;;;;;;;;;;5056787;28;20427;-75
2021/08/19 00:37:45;;;;;;;3.80;1.95;;;;;;;;;;5056638;28;20052;-75
2021/08/19 00:40:11;;;;;;;2.85;1.63;;;;;;;;;;5038885;28;20021;-75
2021/08/19 00:42:36;;;;;;;4.72;1.50;;;;;;;;;;5056679;28;20025;-75
2021/08/19 00:45:02;;;;;;;2.72;1.50;;;;;;;;;;5056879;28;20115;-75
2021/08/19 00:47:28;;;;;;;3.08;1.67;;;;;;;;;;5056676;28;20051;-75
2021/08/19 00:49:58;;;;;;;3.85;1.50;;;;;;;;;;5056458;28;20029;-75
2021/08/19 00:52:23;;;;;;;2.95;1.48;;;;;;;;;;5056439;28;20040;-74
2021/08/19 00:54:49;;;;;;;3.47;1.52;;;;;;;;;;5056330;28;20037;-75
2021/08/19 00:57:14;;;;;;;4.28;1.50;;;;;;;;;;5056381;28;20025;-74
2021/08/19 00:59:39;;;;;;;2.58;1.25;;;;;;;;;;5056710;28;20033;-74
2021/08/19 01:02:05;;;;;;;2.95;1.40;;;;;;;;;;5056137;28;20079;-74
2021/08/19 01:04:32;;;;;;;4.82;1.45;;;;;;;;;;5056262;28;20029;-74
2021/08/19 01:06:58;;;;;;;3.25;1.10;;;;;;;;;;5056219;28;20033;-75
2021/08/19 01:09:23;;;;;;;2.47;1.58;;;;;;;;;;5056146;28;20025;-74
2021/08/19 01:11:49;;;;;;;2.83;1.50;;;;;;;;;;5055811;28;20079;-75
2021/08/19 01:14:14;;;;;;;3.90;1.63;;;;;;;;;;5056049;28;20053;-74
2021/08/19 01:16:40;;;;;;;2.45;1.40;;;;;;;;;;5054965;28;20083;-74
2021/08/19 01:19:05;;;;;;;4.40;1.27;;;;;;;;;;5055901;28;20036;-74
2021/08/19 01:21:31;;;;;;;2.63;1.30;;;;;;;;;;5056024;28;20060;-74
2021/08/19 01:23:56;;;;;;;2.75;1.50;;;;;;;;;;5055870;28;20450;-74
2021/08/19 01:26:22;;;;;;;4.50;1.60;;;;;;;;;;5055782;28;20432;-75
2021/08/19 01:28:48;;;;;;;3.63;1.30;;;;;;;;;;5055770;28;20584;-75
2021/08/19 01:31:18;;;;;;;5.80;1.60;;;;;;;;;;5055598;28;20041;-74
2021/08/19 01:33:44;;;;;;;2.90;1.48;;;;;;;;;;5055623;28;20036;-75
2021/08/19 01:36:10;;;;;;;2.97;1.38;;;;;;;;;;5055803;28;20048;-75
2021/08/19 01:38:36;;;;;;;2.25;1.20;;;;;;;;;;5055634;28;20040;-75
2021/08/19 01:41:02;;;;;;;2.85;1.52;;;;;;;;;;5055463;28;20407;-75
2021/08/19 01:43:28;;;;;;;3.58;1.73;;;;;;;;;;5054924;28;20464;-75
2021/08/19 01:46:07;;;;;;;2.08;1.17;;;;;;;;;;5055327;28;20017;-75
2021/08/19 01:48:33;;;;;;;2.03;1.40;;;;;;;;;;5055494;28;20108;-74
2021/08/19 01:50:59;;;;;;;4.07;1.55;;;;;;;;;;5055430;28;20039;-74
2021/08/19 01:53:24;;;;;;;2.20;1.40;;;;;;;;;;5055120;28;20036;-75
2021/08/19 01:55:50;;;;;;;4.53;1.42;;;;;;;;;;5054613;28;20115;-75
2021/08/19 01:58:17;;;;;;;1.98;1.30;;;;;;;;;;5037158;28;20029;-75
2021/08/19 02:00:42;;;;;;;5.57;1.65;;;;;;;;;;5054605;28;20408;-74
2021/08/19 02:03:08;;;;;;;2.60;1.60;;;;;;;;;;5055177;28;20028;-75
2021/08/19 02:05:35;;;;;;;2.97;1.65;;;;;;;;;;5055211;28;20075;-75
2021/08/19 02:08:00;;;;;;;3.20;1.75;;;;;;;;;;5054720;28;20446;-74
2021/08/19 02:10:26;;;;;;;2.58;1.40;;;;;;;;;;5055144;28;20040;-75
2021/08/19 02:12:51;;;;;;;4.53;1.45;;;;;;;;;;5054901;28;20036;-75
2021/08/19 02:15:16;;;;;;;2.30;1.25;;;;;;;;;;5054929;28;20460;-75
2021/08/19 02:17:41;;;;;;;3.50;1.73;;;;;;;;;;5054664;28;20033;-75
2021/08/19 02:20:07;;;;;;;3.47;1.55;;;;;;;;;;5054810;28;20033;-75
2021/08/19 02:22:32;;;;;;;3.45;1.67;;;;;;;;;;5054882;28;20024;-75
2021/08/19 02:24:57;;;;;;;3.63;1.70;;;;;;;;;;5054667;28;20104;-75
2021/08/19 02:27:23;;;;;;;5.93;2.10;;;;;;;;;;5054142;28;20025;-74
2021/08/19 02:29:48;;;;;;;5.15;2.80;;;;;;;;;;5054684;28;20075;-75
2021/08/19 02:32:15;;;;;;;5.10;2.10;;;;;;;;;;5054240;28;20047;-75
2021/08/19 02:34:40;;;;;;;5.03;2.08;;;;;;;;;;5054467;28;20041;-74
2021/08/19 02:37:06;;;;;;;3.08;1.85;;;;;;;;;;5054446;28;20025;-75
2021/08/19 02:39:31;;;;;;;3.72;2.00;;;;;;;;;;5054767;28;20032;-74
2021/08/19 02:41:56;;;;;;;5.38;2.00;;;;;;;;;;5054447;28;20061;-75
2021/08/19 02:44:21;;;;;;;3.50;1.75;;;;;;;;;;5054064;28;20087;-75
2021/08/19 02:46:47;;;;;;;4.63;1.80;;;;;;;;;;5054425;28;20461;-75
2021/08/19 02:49:12;;;;;;;4.03;2.05;;;;;;;;;;5054240;28;20040;-75
2021/08/19 02:51:37;;;;;;;4.57;1.67;;;;;;;;;;5053938;28;20017;-75
2021/08/19 02:54:02;;;;;;;3.53;1.90;;;;;;;;;;5053978;28;20040;-75
2021/08/19 02:56:28;;;;;;;3.03;1.52;;;;;;;;;;5054529;28;20037;-74
2021/08/19 02:58:53;;;;;;;4.28;1.58;;;;;;;;;;5054124;28;20025;-75
2021/08/19 03:01:18;;;;;;;3.97;1.50;;;;;;;;;;5054008;28;20044;-75
2021/08/19 03:03:44;;;;;;;4.55;1.90;;;;;;;;;;5053668;28;20037;-74
2021/08/19 03:06:09;;;;;;;3.90;1.70;;;;;;;;;;5053607;28;20021;-74
2021/08/19 03:08:34;;;;;;;4.07;1.70;;;;;;;;;;5053698;28;20052;-75
2021/08/19 03:11:00;;;;;;;3.13;1.90;;;;;;;;;;5053799;28;20033;-75
2021/08/19 03:13:25;;;;;;;4.32;1.70;;;;;;;;;;5053830;28;20029;-74
2021/08/19 03:15:50;;;;;;;4.50;2.10;;;;;;;;;;5053763;28;20103;-75
2021/08/19 03:18:16;;;;;;;3.85;1.90;;;;;;;;;;5053759;28;20354;-75
2021/08/19 03:20:41;;;;;;;4.63;2.10;;;;;;;;;;5053716;28;20078;-75
2021/08/19 03:23:06;;;;;;;3.72;1.80;;;;;;;;;;5053574;28;20107;-75
2021/08/19 03:25:32;;;;;;;6.57;2.30;;;;;;;;;;5053124;28;20179;-75
2021/08/19 03:28:00;;;;;;;4.00;2.00;;;;;;;;;;5053645;28;20028;-74
2021/08/19 03:30:26;;;;;;;5.07;2.30;;;;;;;;;;5053270;28;20491;-74
2021/08/19 03:32:52;;;;;;;5.47;2.30;;;;;;;;;;5053488;28;20029;-75
2021/08/19 03:35:17;;;;;;;6.53;2.17;;;;;;;;;;5053580;28;20025;-75
2021/08/19 03:37:42;;;;;;;6.88;2.00;;;;;;;;;;5053185;28;20111;-75
2021/08/19 03:40:08;;;;;;;3.60;2.00;;;;;;;;;;5053144;28;20035;-75
2021/08/19 03:42:35;;;;;;;5.13;1.95;;;;;;;;;;5053476;28;20424;-75
2021/08/19 03:45:00;;;;;;;6.97;2.22;;;;;;;;;;5053640;28;20112;-75
2021/08/19 03:47:26;;;;;;;8.07;2.22;;;;;;;;;;5053177;28;20457;-74
2021/08/19 03:49:53;;;;;;;6.00;2.65;;;;;;;;;;5053374;28;20021;-74
2021/08/19 03:52:18;;;;;;;5.15;2.45;;;;;;;;;;5053316;28;20047;-75
2021/08/19 03:54:43;;;;;;;5.55;2.25;;;;;;;;;;5053061;28;20128;-74
2021/08/19 03:57:09;;;;;;;4.28;1.85;;;;;;;;;;5053227;28;20017;-74
2021/08/19 03:59:34;;;;;;;8.90;2.25;;;;;;;;;;5053249;28;20429;-75
2021/08/19 04:01:59;;;;;;;6.78;2.17;;;;;;;;;;5053275;28;20036;-74
2021/08/19 04:04:25;;;;;;;4.00;2.15;;;;;;;;;;5053188;28;20017;-75
2021/08/19 04:06:50;;;;;;;4.35;2.22;;;;;;;;;;5053230;28;20027;-75
2021/08/19 04:09:15;;;;;;;4.57;1.92;;;;;;;;;;5035358;28;20381;-74
2021/08/19 04:11:40;;;;;;;5.15;2.20;;;;;;;;;;5053192;28;20464;-74
2021/08/19 04:14:06;;;;;;;4.57;2.55;;;;;;;;;;5052911;28;20041;-75
2021/08/19 04:16:31;;;;;;;4.43;1.90;;;;;;;;;;5053215;28;20039;-75
2021/08/19 04:18:56;;;;;;;6.18;2.33;;;;;;;;;;5053421;28;20025;-74
2021/08/19 04:21:22;;;;;;;8.40;2.42;;;;;;;;;;5053090;28;20025;-74
2021/08/19 04:23:47;;;;;;;4.32;2.13;;;;;;;;;;5053026;28;20500;-75
2021/08/19 04:26:12;;;;;;;4.07;2.50;;;;;;;;;;5052655;28;20025;-74
2021/08/19 04:28:38;;;;;;;3.38;2.08;;;;;;;;;;5052986;28;20029;-74
2021/08/19 04:31:03;;;;;;;6.43;2.50;;;;;;;;;;5052869;28;20045;-75
2021/08/19 04:33:29;;;;;;;4.75;2.72;;;;;;;;;;5052887;28;20403;-74
2021/08/19 04:35:54;;;;;;;4.70;2.50;;;;;;;;;;5052908;28;20044;-75
2021/08/19 04:38:20;;;;;;;6.63;2.47;;;;;;;;;;5035113;28;20033;-74
2021/08/19 04:40:45;;;;;;;4.03;2.22;;;;;;;;;;5053018;28;20458;-75
2021/08/19 04:43:10;;;;;;;7.00;3.00;;;;;;;;;;5053036;28;20140;-75
2021/08/19 04:45:35;;;;;;;6.15;2.97;;;;;;;;;;5052927;28;20033;-75
2021/08/19 04:48:01;;;;;;;6.40;2.90;;;;;;;;;;5052746;28;20028;-75
2021/08/19 04:50:26;;;;;;;7.45;2.80;;;;;;;;;;5054953;28;20112;-75
2021/08/19 04:52:51;;;;;;;12.85;3.65;;;;;;;;;;5056487;28;20037;-75
2021/08/19 04:55:16;;;;;;;6.60;2.55;;;;;;;;;;5056430;28;20432;-75
2021/08/19 04:57:42;;;;;;;7.57;3.13;;;;;;;;;;5056373;28;20033;-74
2021/08/19 05:00:07;;;;;;;5.30;2.75;;;;;;;;;;5056244;28;20041;-74
2021/08/19 05:02:33;;;;;;;9.00;2.85;;;;;;;;;;5056405;28;20039;-75
2021/08/19 05:04:58;;;;;;;13.05;3.22;;;;;;;;;;5056254;28;20025;-75
2021/08/19 05:07:25;;;;;;;8.73;2.85;;;;;;;;;;5055894;28;20131;-74
2021/08/19 05:09:51;;;;;;;6.47;3.60;;;;;;;;;;5056270;28;20030;-75
2021/08/19 05:12:16;;;;;;;7.22;3.00;;;;;;;;;;5056377;28;20033;-75
2021/08/19 05:14:41;;;;;;;8.63;2.90;;;;;;;;;;5056125;28;20048;-75
2021/08/19 05:17:06;;;;;;;6.10;3.10;;;;;;;;;;5055956;28;20027;-74
2021/08/19 05:19:33;;;;;;;6.38;3.45;;;;;;;;;;5056138;28;20033;-75
2021/08/19 05:21:58;;;;;;;7.05;3.55;;;;;;;;;;5056016;28;20036;-75
2021/08/19 05:24:23;;;;;;;8.63;3.70;;;;;;;;;;5056026;28;20080;-74
2021/08/19 05:26:49;;;;;;;5.10;2.90;;;;;;;;;;5037950;28;20431;-75
2021/08/19 05:29:14;;;;;;;6.97;3.55;;;;;;;;;;5055828;28;20036;-75
2021/08/19 05:31:39;;;;;;;10.98;3.55;;;;;;;;;;5055940;28;20076;-74
2021/08/19 05:34:08;;;;;;;6.30;3.50;;;;;;;;;;5055536;28;20358;-74
2021/08/19 05:36:34;;;;;;;7.88;3.83;;;;;;;;;;5055757;28;20033;-75
2021/08/19 05:38:59;;;;;;;6.75;3.45;;;;;;;;;;5055684;28;20024;-75
2021/08/19 05:41:24;;;;;;;7.65;4.03;;;;;;;;;;5055545;28;20477;-75
2021/08/19 05:43:50;;;;;;;6.13;3.88;;;;;;;;;;5055963;28;20037;-75
2021/08/19 05:46:15;;;;;;;8.60;3.63;;;;;;;;;;5055406;28;20028;-74
2021/08/19 05:48:40;;;;;;;8.73;3.30;;;;;;;;;;5055526;28;20033;-75
2021/08/19 05:51:06;;;;;;;8.00;3.65;;;;;;;;;;5055238;28;20040;-75
2021/08/19 05:53:31;;;;;;;6.20;3.53;;;;;;;;;;5055458;28;20039;-74
2021/08/19 05:55:56;;;;;;;5.50;3.08;;;;;;;;;;5055316;28;20025;-75
2021/08/19 05:58:22;;;;;;;7.45;3.00;;;;;;;;;;5055455;28;20030;-75
2021/08/19 06:00:48;;;;;;;4.28;2.80;;;;;;;;;;5054688;28;20025;-74
2021/08/19 06:03:14;;;;;;;4.68;2.60;;;;;;;;;;5054732;28;20041;-75
2021/08/19 06:05:40;;;;;;;6.53;2.78;;;;;;;;;;5055054;28;20040;-75
2021/08/19 06:08:05;;;;;;;5.07;2.60;;;;;;;;;;5054936;28;20021;-75
2021/08/19 06:10:31;;;;;;;6.68;2.17;;;;;;;;;;5055238;28;20122;-75
2021/08/19 06:12:56;;;;;;;4.00;2.25;;;;;;;;;;5054817;28;20040;-76
2021/08/19 06:15:21;;;;;;;5.13;1.95;;;;;;;;;;5054935;28;20108;-75
2021/08/19 06:17:46;;;;;;;9.70;2.20;;;;;;;;;;5054962;28;20025;-74
2021/08/19 06:20:12;;;;;;;4.35;2.42;;;;;;;;;;5054849;28;20492;-75
2021/08/19 06:22:37;;;;;;;3.92;2.17;;;;;;;;;;5054801;28;20021;-75
2021/08/19 06:25:03;;;;;;;6.05;2.20;;;;;;;;;;5054785;28;20032;-75
2021/08/19 06:27:28;;;;;;;5.45;2.65;;;;;;;;;;5054775;28;20067;-75
2021/08/19 06:29:53;;;;;;;6.97;2.40;;;;;;;;;;5055087;28;20029;-75
2021/08/19 06:32:18;;;;;;;7.57;2.20;;;;;;;;;;5054751;28;20049;-76
2021/08/19 06:34:44;;;;;;;4.35;2.47;;;;;;;;;;5054494;28;20080;-75
2021/08/19 06:37:09;;;;;;;5.10;2.58;;;;;;;;;;5053867;28;20099;-75
2021/08/19 06:39:34;;;;;;;5.82;2.90;;;;;;;;;;5054487;28;20033;-75
2021/08/19 06:42:00;;;;;;;7.05;2.95;;;;;;;;;;5054155;28;20031;-75
2021/08/19 06:44:25;;;;;;;5.50;3.08;;;;;;;;;;5054069;28;20027;-76
2021/08/19 06:46:50;;;;;;;5.60;3.03;;;;;;;;;;5054042;28;20033;-76
2021/08/19 06:49:16;;;;;;;5.95;3.42;;;;;;;;;;5054266;28;20044;-74
2021/08/19 06:51:41;;;;;;;6.00;3.10;;;;;;;;;;5054320;28;20027;-74
2021/08/19 06:54:06;;;;;;;7.95;3.97;;;;;;;;;;5054213;28;20048;-74
2021/08/19 06:56:31;;;;;;;10.18;3.95;;;;;;;;;;5054396;28;20070;-74
2021/08/19 06:58:57;;;;;;;9.20;4.15;;;;;;;;;;5054087;28;20028;-74
2021/08/19 07:01:22;;;;;;;8.32;3.40;;;;;;;;;;5053967;28;20039;-74
2021/08/19 07:03:47;;;;;;;7.55;3.78;;;;;;;;;;5053813;28;20575;-73
2021/08/19 07:06:14;;;;;;;8.95;4.35;;;;;;;;;;5053922;28;20036;-75
2021/08/19 07:08:40;;;;;;;7.75;3.85;;;;;;;;;;5054156;28;20075;-73
2021/08/19 07:11:05;;;;;;;7.40;3.67;;;;;;;;;;5053458;28;20473;-73
2021/08/19 07:13:31;;;;;;;6.43;3.78;;;;;;;;;;5052505;28;20049;-73
2021/08/19 07:15:56;;;;;;;10.30;4.50;;;;;;;;;;5053688;28;20033;-75
2021/08/19 07:18:21;;;;;;;7.88;3.78;;;;;;;;;;5053846;28;20032;-74
2021/08/19 07:20:47;;;;;;;9.88;3.30;;;;;;;;;;5053772;28;20028;-73
2021/08/19 07:23:12;;;;;;;5.85;3.13;;;;;;;;;;5053299;28;20033;-73
2021/08/19 07:25:37;;;;;;;6.00;3.53;;;;;;;;;;5053776;28;20033;-73
2021/08/19 07:28:03;;;;;;;5.53;3.17;;;;;;;;;;5053562;28;20021;-75
2021/08/19 07:30:28;;;;;;;7.00;3.15;;;;;;;;;;5053533;28;20045;-73
2021/08/19 07:32:54;;;;;;;8.02;3.38;;;;;;;;;;5053531;28;20538;-75
2021/08/19 07:35:19;;;;;;;6.43;3.50;;;;;;;;;;5045749;28;20055;-78
2021/08/19 07:37:49;;;;;;;11.80;4.85;;;;;;;;;;5046302;28;20119;-77
2021/08/19 07:40:15;;;;;;;7.18;3.22;;;;;;;;;;5028294;28;20037;-77
2021/08/19 07:42:41;;;;;;;12.40;4.68;;;;;;;;;;5052221;28;20021;-76
2021/08/19 07:45:07;;;;;;;13.43;4.65;;;;;;;;;;5051843;28;20021;-77
2021/08/19 07:47:34;;;;;;;10.23;4.22;;;;;;;;;;5050713;28;20111;-76
2021/08/19 07:49:59;;;;;;;8.45;2.92;;;;;;;;;;5052022;28;20060;-77
2021/08/19 07:52:25;;;;;;;5.28;2.95;;;;;;;;;;5052307;28;20048;-76
2021/08/19 07:54:50;;;;;;;6.68;3.28;;;;;;;;;;5052074;28;20037;-77
2021/08/19 07:57:15;;;;;;;4.68;2.88;;;;;;;;;;5050156;28;20021;-76
2021/08/19 07:59:40;;;;;;;6.50;2.83;;;;;;;;;;5051349;28;20029;-76
2021/08/19 08:02:06;;;;;;;6.97;2.97;;;;;;;;;;5051618;28;20040;-77
2021/08/19 08:04:31;;;;;;;6.32;3.35;;;;;;;;;;5052745;28;20454;-77
2021/08/19 08:06:56;;;;;;;3.97;2.35;;;;;;;;;;5052942;28;20021;-76
2021/08/19 08:09:21;;;;;;;6.28;3.05;;;;;;;;;;5052469;28;20493;-76
2021/08/19 08:11:47;;;;;;;5.47;2.78;;;;;;;;;;5052962;28;20017;-75
2021/08/19 08:14:12;;;;;;;5.35;2.75;;;;;;;;;;5053021;28;20036;-73
2021/08/19 08:16:37;;;;;;;6.15;3.40;;;;;;;;;;5052935;28;20495;-75
2021/08/19 08:19:03;;;;;;;5.30;2.63;;;;;;;;;;5053127;28;20446;-76
2021/08/19 08:21:29;;;;;;;7.80;3.45;;;;;;;;;;5052932;28;20074;-73
2021/08/19 08:23:55;;;;;;;10.63;3.85;;;;;;;;;;5052582;28;20035;-75
2021/08/19 08:26:21;;;;;;;4.55;2.85;;;;;;;;;;5056384;28;20401;-75
2021/08/19 08:28:50;;;;;;;10.18;3.97;;;;;;;;;;5048926;28;20036;-77
2021/08/19 08:31:15;;;;;;;7.35;3.35;;;;;;;;;;5036692;28;20122;-75
2021/08/19 08:33:41;;;;;;;11.82;3.80;;;;;;;;;;5055325;28;20086;-75
2021/08/19 08:36:06;;;;;;;8.60;3.65;;;;;;;;;;5054272;28;20036;-79
2021/08/19 08:38:31;;;;;;;9.18;4.25;;;;;;;;;;5054753;28;20054;-75
2021/08/19 08:40:57;;;;;;;5.13;3.10;;;;;;;;;;5055061;28;20031;-75
2021/08/19 08:43:23;;;;;;;5.97;3.05;;;;;;;;;;5055568;28;20047;-76
2021/08/19 08:45:49;;;;;;;6.72;3.05;;;;;;;;;;5055963;28;20028;-75
2021/08/19 08:48:19;;;;;;;9.98;4.22;;;;;;;;;;5056323;28;20123;-76
2021/08/19 08:50:46;;;;;;;9.65;3.97;;;;;;;;;;5056615;28;20032;-75
2021/08/19 08:53:11;;;;;;;8.35;3.75;;;;;;;;;;5056406;28;20083;-76
2021/08/19 08:55:37;;;;;;;8.57;4.32;;;;;;;;;;5056260;28;20025;-74
2021/08/19 08:58:03;;;;;;;7.15;3.33;;;;;;;;;;5056389;28;20070;-76
2021/08/19 09:00:28;;;;;;;7.50;3.70;;;;;;;;;;5056279;28;20401;-75
2021/08/19 09:02:53;;;;;;;4.95;2.88;;;;;;;;;;5047097;28;20075;-75
2021/08/19 09:05:20;;;;;;;8.40;3.20;;;;;;;;;;5050218;28;20033;-76
2021/08/19 09:07:51;;;;;;;10.23;3.40;;;;;;;;;;5051975;28;20033;-75
2021/08/19 09:10:17;;;;;;;7.20;3.47;;;;;;;;;;5052885;28;20066;-75
2021/08/19 09:12:43;;;;;;;5.05;2.42;;;;;;;;;;5052520;28;20033;-77
2021/08/19 09:15:12;;;;;;;6.03;3.28;;;;;;;;;;5052404;28;20040;-75
2021/08/19 09:17:55;;;;;;;6.60;3.15;;;;;;;;;;5052494;28;20151;-75
2021/08/19 09:20:21;;;;;;;6.50;3.03;;;;;;;;;;5052510;28;20032;-74
2021/08/19 09:22:57;;;;;;;8.68;3.28;;;;;;;;;;5052087;28;20037;-73
2021/08/19 09:25:22;;;;;;;11.20;3.65;;;;;;;;;;5052308;28;20032;-74
2021/08/19 09:28:06;;;;;;;7.80;3.95;;;;;;;;;;5052406;28;20029;-74
2021/08/19 09:30:32;;;;;;;6.68;3.53;;;;;;;;;;5034961;28;20522;-76
2021/08/19 09:32:57;;;;;;;6.88;3.53;;;;;;;;;;5052274;28;20123;-74
2021/08/19 09:35:24;;;;;;;6.22;3.65;;;;;;;;;;5052255;28;20049;-77
2021/08/19 09:37:52;;;;;;;7.53;3.45;;;;;;;;;;5051414;28;20025;-76
2021/08/19 09:40:18;;;;;;;9.43;4.15;;;;;;;;;;5052354;28;20033;-77
2021/08/19 09:42:43;;;;;;;7.20;3.72;;;;;;;;;;5051764;28;20028;-76
2021/08/19 09:45:18;;;;;;;5.88;3.35;;;;;;;;;;5052403;28;20436;-75
2021/08/19 09:47:43;;;;;;;;;;;;;;;;;;5052508;28;20032;-78
2021/08/19 09:50:19;;;;;;;8.30;4.13;;;;;;;;;;5052597;28;19915;-76
2021/08/19 09:52:45;;;;;;;8.73;4.32;;;;;;;;;;5052051;28;20087;-76
2021/08/19 09:55:26;;;;;;;7.82;4.88;;;;;;;;;;5051796;28;20037;-78
2021/08/19 09:57:52;;;;;;;7.93;4.78;;;;;;;;;;5048544;28;20477;-76
2021/08/19 10:00:41;;;;;;;8.30;4.60;;;;;;;;;;5049346;28;20047;-75
2021/08/19 10:03:08;;;;;;;8.30;4.60;;;;;;;;;;5048991;28;20029;-76
2021/08/19 10:05:33;;;;;;;8.85;4.15;;;;;;;;;;5051422;28;20462;-76
2021/08/19 10:07:59;;;;;;;9.85;4.90;;;;;;;;;;5050913;28;20029;-80
2021/08/19 10:10:28;;;;;;;6.40;4.20;;;;;;;;;;5051539;28;20021;-76
2021/08/19 10:12:54;;;;;;;11.65;6.15;;;;;;;;;;5049191;28;20048;-75
2021/08/19 10:15:20;;;;;;;10.73;5.00;;;;;;;;;;5050712;28;20061;-76
2021/08/19 10:17:47;;;;;;;12.07;4.82;;;;;;;;;;5050308;28;20417;-76
2021/08/19 10:20:16;;;;;;;7.82;4.95;;;;;;;;;;5050756;28;20044;-75
2021/08/19 10:22:41;;;;;;;10.60;4.38;;;;;;;;;;5051174;28;20060;-76
2021/08/19 10:25:07;;;;;;;7.38;4.60;;;;;;;;;;5046716;28;20048;-78
2021/08/19 10:27:32;;;;;;;9.38;4.65;;;;;;;;;;5049355;28;20033;-76
2021/08/19 10:30:04;;;;;;;7.38;4.93;;;;;;;;;;5050342;28;20480;-77
2021/08/19 10:32:36;;;;;;;9.73;5.60;;;;;;;;;;5050519;28;20437;-76
2021/08/19 10:35:03;;;;;;;8.98;4.93;;;;;;;;;;5051270;28;20045;-76
2021/08/19 10:37:44;;;;;;;11.75;5.25;;;;;;;;;;5051022;28;20033;-75
2021/08/19 10:40:19;;;;;;;10.27;4.93;;;;;;;;;;5050747;28;20075;-75
2021/08/19 10:42:44;;;;;;;9.23;5.05;;;;;;;;;;5050042;28;20580;-76
2021/08/19 10:45:28;;;;;;;13.18;4.97;;;;;;;;;;5050551;28;20032;-77
2021/08/19 10:47:53;;;;;;;16.35;4.90;;;;;;;;;;5050395;28;20045;-75
2021/08/19 10:50:25;;;;;;;9.57;5.57;;;;;;;;;;5050656;28;20066;-76
2021/08/19 10:52:50;;;;;;;10.43;5.18;;;;;;;;;;5050168;28;20405;-76
2021/08/19 10:55:16;;;;;;;11.98;5.05;;;;;;;;;;5050063;28;20040;-77
2021/08/19 10:57:48;;;;;;;8.68;4.97;;;;;;;;;;5050371;28;20029;-75
2021/08/19 11:00:14;;;;;;;10.63;5.20;;;;;;;;;;5050120;28;20029;-76
2021/08/19 11:02:40;;;;;;;15.80;5.32;;;;;;;;;;5044717;28;20094;-75
2021/08/19 11:05:06;;;;;;;11.70;5.13;;;;;;;;;;5049567;28;20358;-77
2021/08/19 11:07:46;;;;;;;11.05;4.38;;;;;;;;;;5044611;28;20107;-76
2021/08/19 11:10:11;;;;;;;10.50;5.28;;;;;;;;;;5049829;28;20025;-75
2021/08/19 11:12:37;;;;;;;8.55;4.50;;;;;;;;;;5050099;28;20029;-74
2021/08/19 11:15:02;;;;;;;7.32;4.32;;;;;;;;;;5049215;28;20037;-74
2021/08/19 11:17:27;;;;;;;10.85;4.88;;;;;;;;;;5049972;28;20033;-75
2021/08/19 11:19:53;;;;;;;9.73;5.13;;;;;;;;;;5050140;28;20148;-74
2021/08/19 11:22:20;;;;;;;8.13;3.95;;;;;;;;;;5049123;28;20278;-74
2021/08/19 11:24:46;;;;;;;9.95;4.13;;;;;;;;;;5049490;28;20305;-74
2021/08/19 11:27:11;;;;;;;7.60;4.20;;;;;;;;;;5050025;28;20397;-74
2021/08/19 11:29:36;;;;;;;10.80;4.75;;;;;;;;;;5050228;28;20118;-74
2021/08/19 11:32:03;;;;;;;6.35;4.05;;;;;;;;;;5049900;28;20103;-75
2021/08/19 11:34:28;;;;;;;8.35;3.53;;;;;;;;;;5049444;28;20045;-74
2021/08/19 11:36:53;;;;;;;5.22;2.85;;;;;;;;;;5049903;28;20036;-74
2021/08/19 11:39:23;;;;;;;7.03;3.35;;;;;;;;;;5049094;28;20098;-74
2021/08/19 11:41:58;;;;;;;6.32;2.67;;;;;;;;;;5049304;28;20074;-74
2021/08/19 11:44:23;;;;;;;5.82;2.63;;;;;;;;;;5049796;28;20029;-74
2021/08/19 11:46:49;;;;;;;10.80;2.70;;;;;;;;;;5050119;28;20032;-74
2021/08/19 11:49:14;;;;;;;4.60;2.33;;;;;;;;;;5048878;28;20013;-74
2021/08/19 11:51:41;;;;;;;7.15;2.72;;;;;;;;;;5049879;28;20033;-74
2021/08/19 11:54:07;;;;;;;4.70;2.50;;;;;;;;;;5049148;28;20064;-75
2021/08/19 11:56:34;;;;;;;6.60;2.90;;;;;;;;;;5049650;28;20033;-75
2021/08/19 11:59:02;;;;;;;4.35;2.28;;;;;;;;;;5048379;28;20059;-74
2021/08/19 12:01:27;;;;;;;5.05;2.03;;;;;;;;;;5048989;28;20037;-75
2021/08/19 12:03:52;;;;;;;4.20;1.75;;;;;;;;;;5049271;28;20086;-74
2021/08/19 12:06:19;;;;;;;3.40;1.95;;;;;;;;;;5047162;28;20367;-74
2021/08/19 12:08:50;;;;;;;6.07;2.28;;;;;;;;;;5049798;28;20041;-75
2021/08/19 12:11:18;;;;;;;7.03;2.30;;;;;;;;;;5049048;28;20019;-74
2021/08/19 12:13:43;;;;;;;5.15;2.00;;;;;;;;;;5049208;28;20047;-75
2021/08/19 12:16:09;;;;;;;7.00;3.00;;;;;;;;;;5049390;28;20431;-75
2021/08/19 12:18:34;;;;;;;5.75;3.00;;;;;;;;;;5049420;28;20052;-74
2021/08/19 12:21:14;;;;;;;5.65;3.00;;;;;;;;;;5049926;28;20485;-74
2021/08/19 12:23:40;;;;;;;8.85;3.65;;;;;;;;;;5049456;28;20049;-74
2021/08/19 12:26:09;;;;;;;5.57;2.72;;;;;;;;;;5048947;28;20071;-74
2021/08/19 12:28:34;;;;;;;7.78;2.50;;;;;;;;;;5049070;28;20040;-75
2021/08/19 12:31:02;;;;;;;6.70;3.20;;;;;;;;;;5049750;28;20477;-74
2021/08/19 12:33:40;;;;;;;9.98;3.10;;;;;;;;;;5049770;28;20489;-75
2021/08/19 12:36:13;;;;;;;7.20;2.92;;;;;;;;;;5048861;28;20033;-74
2021/08/19 12:38:39;;;;;;;8.23;2.78;;;;;;;;;;5048966;28;20029;-74
2021/08/19 12:41:18;;;;;;;3.95;2.10;;;;;;;;;;5049648;28;20078;-74
2021/08/19 12:43:44;;;;;;;4.47;3.13;;;;;;;;;;5048867;28;20060;-74
2021/08/19 12:46:10;;;;;;;6.25;2.58;;;;;;;;;;5048360;28;20466;-75
2021/08/19 12:48:35;;;;;;;5.10;2.50;;;;;;;;;;5049833;28;20024;-74
2021/08/19 12:51:20;;;;;;;5.53;2.17;;;;;;;;;;5048199;28;20041;-74
2021/08/19 12:54:05;;;;;;;10.65;3.28;;;;;;;;;;5048926;28;20033;-75
2021/08/19 12:56:31;;;;;;;5.18;2.45;;;;;;;;;;5048692;28;20044;-74
2021/08/19 12:58:56;;;;;;;5.70;2.50;;;;;;;;;;5031459;28;20136;-74
2021/08/19 13:01:21;;;;;;;3.70;1.98;;;;;;;;;;5048847;28;20497;-75
2021/08/19 13:03:47;;;;;;;4.57;2.30;;;;;;;;;;5049258;28;20033;-77
2021/08/19 13:06:12;;;;;;;3.78;1.80;;;;;;;;;;5049225;28;20048;-74
2021/08/19 13:08:37;;;;;;;3.55;1.90;;;;;;;;;;5046284;28;20036;-74
2021/08/19 13:11:02;;;;;;;4.32;1.90;;;;;;;;;;5048638;28;20033;-74
2021/08/19 13:13:28;;;;;;;3.72;1.48;;;;;;;;;;5051118;28;20037;-75
2021/08/19 13:15:53;;;;;;;1.92;1.00;;;;;;;;;;5052060;28;20025;-76
2021/08/19 13:18:19;;;;;;;3.13;1.20;;;;;;;;;;5052995;28;20103;-74
2021/08/19 13:20:45;;;;;;;5.32;1.55;;;;;;;;;;5052058;28;20044;-74
2021/08/19 13:23:10;;;;;;;6.50;2.20;;;;;;;;;;5052224;28;20025;-74
2021/08/19 13:25:35;;;;;;;2.67;1.40;;;;;;;;;;5052252;28;20022;-75
2021/08/19 13:28:01;;;;;;;6.60;2.75;;;;;;;;;;5052153;28;20033;-74
2021/08/19 13:30:28;;;;;;;4.60;1.58;;;;;;;;;;5052072;28;20445;-74
2021/08/19 13:32:54;;;;;;;4.57;1.67;;;;;;;;;;5052422;28;20033;-74
2021/08/19 13:35:19;;;;;;;3.38;1.23;;;;;;;;;;5051597;28;20048;-74
2021/08/19 13:37:45;;;;;;;2.15;1.30;;;;;;;;;;5051827;28;20025;-74
2021/08/19 13:40:10;;;;;;;14.85;2.95;;;;;;;;;;5052253;28;20373;-74
2021/08/19 13:42:35;;;;;;;10.18;2.20;;;;;;;;;;5051869;28;20484;-74
2021/08/19 13:45:00;;;;;;;5.40;2.05;;;;;;;;;;5052182;28;20052;-75
2021/08/19 13:47:26;;;;;;;5.13;1.45;;;;;;;;;;5049770;28;20386;-74
2021/08/19 13:49:51;;;;;;;4.70;1.63;;;;;;;;;;5050481;28;20033;-74
2021/08/19 13:52:16;;;;;;;6.93;2.22;;;;;;;;;;5051503;28;20122;-75
2021/08/19 13:54:42;;;;;;;6.15;1.50;;;;;;;;;;5050313;28;20040;-74
2021/08/19 13:57:07;;;;;;;4.35;1.92;;;;;;;;;;5050758;28;20126;-75
2021/08/19 13:59:35;;;;;;;3.95;1.70;;;;;;;;;;5051526;28;20458;-74
2021/08/19 14:02:01;;;;;;;3.90;1.50;;;;;;;;;;5050718;28;20083;-75
2021/08/19 14:04:26;;;;;;;3.53;1.65;;;;;;;;;;5050985;28;20091;-73
2021/08/19 14:06:51;;;;;;;4.40;1.60;;;;;;;;;;5050686;28;20029;-74
2021/08/19 14:09:17;;;;;;;7.10;1.45;;;;;;;;;;5051256;28;20035;-77
2021/08/19 14:11:42;;;;;;;5.20;1.77;;;;;;;;;;5051007;28;20066;-73
2021/08/19 14:14:07;;;;;;;2.55;1.52;;;;;;;;;;5050597;28;20094;-74
2021/08/19 14:16:33;;;;;;;5.60;1.65;;;;;;;;;;5050066;28;20029;-74
2021/08/19 14:18:58;;;;;;;4.18;1.33;;;;;;;;;;5050223;28;20466;-74
2021/08/19 14:21:24;;;;;;;3.38;1.58;;;;;;;;;;5051020;28;20151;-74
2021/08/19 14:23:49;;;;;;;5.65;1.70;;;;;;;;;;5049987;28;20039;-74
2021/08/19 14:26:14;;;;;;;4.43;1.60;;;;;;;;;;5050630;28;20082;-74
2021/08/19 14:28:40;;;;;;;3.92;1.65;;;;;;;;;;5050647;28;20029;-74
2021/08/19 14:31:06;;;;;;;2.28;1.50;;;;;;;;;;5050748;28;20448;-74
2021/08/19 14:33:31;;;;;;;2.42;1.45;;;;;;;;;;5050438;28;20041;-74
2021/08/19 14:35:57;;;;;;;4.50;1.67;;;;;;;;;;5051044;28;20025;-74
2021/08/19 14:38:23;;;;;;;3.67;1.77;;;;;;;;;;5049500;28;20091;-74